Time;durP1;ratioP1;P1;durP2;ratioP2;P2;SDS_P1;SDS_P2;PMS_P1;PMS_P2;Temp;Humidity;BMP_temperature;BMP_pressure;BME280_temperature;BME280_humidity;BME280_pressure;Samples;Min_cycle;Max_cycle;Signal;HPM_P1;HPM_P2
2022/01/17 00:01:54;;;;;;;44.90;22.60;;;;;;;2.38;98.11;100219.64;1624849;87;25842;-76
2022/01/17 00:04:20;;;;;;;48.75;25.27;;;;;;;2.40;98.01;100212.39;1613126;88;26352;-76
2022/01/17 00:06:47;;;;;;;41.40;21.62;;;;;;;2.41;97.87;100198.22;1613119;88;26249;-76
2022/01/17 00:09:14;;;;;;;41.18;20.80;;;;;;;2.44;98.16;100199.74;1613219;88;25886;-76
2022/01/17 00:11:44;;;;;;;38.15;18.30;;;;;;;2.45;97.94;100192.14;1613024;87;27485;-76
2022/01/17 00:14:13;;;;;;;40.25;20.23;;;;;;;2.46;98.09;100189.34;1612835;88;25670;-76
2022/01/17 00:16:44;;;;;;;41.28;21.90;;;;;;;2.47;98.19;100187.06;1612540;88;25827;-76
2022/01/17 00:21:49;;;;;;;42.23;21.37;;;;;;;2.49;98.35;100169.23;1623093;87;25984;-76
2022/01/17 00:24:18;;;;;;;38.25;19.60;;;;;;;2.51;98.25;100167.77;1630947;87;28778;-76
2022/01/17 00:26:46;;;;;;;39.10;20.72;;;;;;;2.53;98.39;100155.23;1615227;88;26026;-76
2022/01/17 00:29:13;;;;;;;42.23;22.30;;;;;;;2.53;98.31;100158.72;1614970;88;26143;-76
2022/01/17 00:31:39;;;;;;;41.77;21.40;;;;;;;2.55;98.24;100151.47;1613174;87;26312;-77
2022/01/17 00:34:05;;;;;;;48.87;22.42;;;;;;;2.56;98.49;100140.41;1615627;87;25931;-76
2022/01/17 00:36:31;;;;;;;46.80;21.77;;;;;;;2.56;98.28;100138.61;1615804;88;28030;-76
2022/01/17 00:38:57;;;;;;;42.58;22.30;;;;;;;2.58;98.33;100138.45;1615897;88;26413;-76
2022/01/17 00:41:24;;;;;;;46.98;24.52;;;;;;;2.59;98.20;100141.45;1605314;88;25780;-77
2022/01/17 00:43:50;;;;;;;36.35;19.67;;;;;;;2.61;98.21;100139.49;1614147;88;26129;-76
2022/01/17 00:46:17;;;;;;;39.08;19.05;;;;;;;2.61;98.45;100135.53;1613402;87;25944;-76
2022/01/17 00:48:43;;;;;;;43.58;22.35;;;;;;;2.61;98.50;100136.84;1615710;88;27490;-76
2022/01/17 00:51:09;;;;;;;47.35;24.43;;;;;;;2.61;98.35;100128.41;1613624;88;25885;-76
2022/01/17 00:53:37;;;;;;;45.25;24.07;;;;;;;2.61;98.25;100127.08;1613989;88;25939;-76
2022/01/17 00:56:05;;;;;;;47.48;24.15;;;;;;;2.62;98.38;100130.08;1616262;88;26064;-76
2022/01/17 00:58:31;;;;;;;46.65;23.42;;;;;;;2.63;98.83;100136.21;1615810;88;26012;-76
2022/01/17 01:00:57;;;;;;;50.75;25.23;;;;;;;2.60;98.79;100136.01;1615808;88;28218;-76
2022/01/17 01:03:23;;;;;;;49.55;25.40;;;;;;;2.61;98.99;100122.31;1612947;88;25604;-77
2022/01/17 01:05:50;;;;;;;43.08;22.55;;;;;;;2.63;99.16;100120.34;1613195;87;25905;-78
2022/01/17 01:08:16;;;;;;;41.90;21.82;;;;;;;2.64;99.36;100108.77;1616842;88;26631;-76
2022/01/17 01:10:43;;;;;;;45.28;23.27;;;;;;;2.63;99.34;100105.29;1617132;88;25796;-77
2022/01/17 01:13:09;;;;;;;41.68;20.65;;;;;;;2.64;99.25;100109.61;1613216;88;28463;-76
2022/01/17 01:18:15;;;;;;;39.38;21.82;;;;;;;2.66;99.28;100090.47;1612775;88;25906;-77
2022/01/17 01:28:40;;;;;;;45.85;25.52;;;;;;;2.70;99.60;100057.94;1613479;88;26016;-76
2022/01/17 01:31:13;;;;;;;40.52;21.05;;;;;;;2.69;99.54;100047.88;1613149;87;25924;-76
2022/01/17 01:33:39;;;;;;;47.75;26.02;;;;;;;2.71;99.60;100044.59;1614392;88;26156;-76
2022/01/17 01:36:10;;;;;;;46.18;25.10;;;;;;;2.72;99.53;100038.30;1612354;88;25898;-77
2022/01/17 01:38:33;;;;;;;41.68;21.90;;;;;;;2.73;99.69;100024.11;1614972;88;27506;-76
2022/01/17 01:40:59;;;;;;;49.75;26.75;;;;;;;2.74;99.63;100020.95;1615089;88;25825;-76
2022/01/17 01:43:25;;;;;;;41.55;23.18;;;;;;;2.75;99.72;100006.77;1612987;88;25850;-76
2022/01/17 01:45:58;;;;;;;48.23;25.45;;;;;;;2.77;99.55;100016.70;1609794;88;26098;-76
2022/01/17 01:48:20;;;;;;;49.75;25.68;;;;;;;2.78;99.65;100009.92;1613645;88;26709;-76
2022/01/17 01:50:47;;;;;;;52.05;27.37;;;;;;;2.79;99.41;100009.44;1612506;88;27655;-76
2022/01/17 01:53:13;;;;;;;45.35;22.98;;;;;;;2.82;99.35;100001.21;1612350;88;25787;-76
2022/01/17 01:55:40;;;;;;;45.48;25.57;;;;;;;2.82;99.41;100005.18;1614384;88;25868;-76
2022/01/17 01:58:07;;;;;;;45.58;23.90;;;;;;;2.83;99.37;100008.98;1613562;88;26887;-77
2022/01/17 02:00:33;;;;;;;47.30;24.95;;;;;;;2.85;99.41;100015.44;1590280;88;25611;-77
2022/01/17 02:02:59;;;;;;;48.63;25.62;;;;;;;2.85;99.42;100004.86;1614548;88;27650;-76
2022/01/17 02:05:25;;;;;;;45.55;24.87;;;;;;;2.85;99.44;99996.44;1615134;88;25825;-76
2022/01/17 02:07:52;;;;;;;45.78;25.35;;;;;;;2.88;99.63;99999.28;1613207;88;25772;-76
2022/01/17 02:10:18;;;;;;;41.75;23.62;;;;;;;2.87;99.48;99983.05;1616715;88;26082;-76
2022/01/17 02:12:44;;;;;;;45.20;25.10;;;;;;;2.87;99.58;99976.44;1613194;88;26396;-77
2022/01/17 02:15:16;;;;;;;41.77;23.52;;;;;;;2.87;99.70;99973.31;1613030;87;27463;-76
2022/01/17 02:17:52;;;;;;;44.23;24.95;;;;;;;2.90;99.77;99965.57;1614564;87;25684;-76
2022/01/17 02:20:17;;;;;;;44.00;21.97;;;;;;;2.91;99.77;99966.73;1629773;87;25845;-76
2022/01/17 02:22:43;;;;;;;40.25;22.62;;;;;;;2.93;99.82;99950.73;1631730;86;26180;-76
2022/01/17 02:25:10;;;;;;;45.28;24.57;;;;;;;2.95;99.70;99937.66;1632669;87;26566;-76
2022/01/17 02:27:37;;;;;;;42.38;21.55;;;;;;;2.96;99.58;99940.66;1627065;87;27473;-76
2022/01/17 02:30:05;;;;;;;49.70;26.55;;;;;;;2.98;99.59;99934.72;1632817;86;25923;-76
2022/01/17 02:32:33;;;;;;;47.90;24.52;;;;;;;2.99;99.39;99919.17;1632807;87;25827;-76
2022/01/17 02:35:19;;;;;;;44.55;25.25;;;;;;;3.01;99.29;99909.29;1629851;87;26255;-76
2022/01/17 02:37:46;;;;;;;43.60;25.45;;;;;;;3.02;99.22;99895.06;1629826;87;25842;-76
2022/01/17 02:40:17;;;;;;;46.77;23.45;;;;;;;3.03;99.09;99892.77;1615717;88;27555;-76
2022/01/17 02:42:45;;;;;;;48.23;24.80;;;;;;;3.04;98.99;99880.34;1611239;88;26005;-77
2022/01/17 02:45:20;;;;;;;42.83;24.25;;;;;;;3.06;98.90;99879.20;1613160;87;26063;-76
2022/01/17 02:47:40;;;;;;;45.40;25.08;;;;;;;3.08;98.89;99879.87;1612373;88;26136;-76
2022/01/17 02:50:08;;;;;;;40.10;21.62;;;;;;;3.09;98.77;99874.10;1613495;87;25772;-76
2022/01/17 02:52:34;;;;;;;44.33;22.73;;;;;;;3.11;98.74;99871.64;1612887;88;28397;-76
2022/01/17 02:55:00;;;;;;;37.75;19.42;;;;;;;3.14;98.63;99872.63;1615714;87;25978;-76
2022/01/17 02:57:28;;;;;;;44.58;23.73;;;;;;;3.17;98.52;99866.69;1612346;88;25926;-76
2022/01/17 02:59:54;;;;;;;44.30;22.60;;;;;;;3.19;98.40;99854.16;1615707;88;26118;-76
2022/01/17 03:02:20;;;;;;;37.60;21.10;;;;;;;3.19;98.34;99849.67;1609483;88;26619;-76
2022/01/17 03:04:46;;;;;;;40.92;21.25;;;;;;;3.22;98.22;99851.18;1615060;87;27459;-76
2022/01/17 03:07:12;;;;;;;36.75;19.85;;;;;;;3.24;98.21;99838.12;1632137;87;25832;-76
2022/01/17 03:09:50;;;;;;;42.80;22.30;;;;;;;3.26;98.12;99837.48;1630328;86;26476;-76
2022/01/17 03:12:10;;;;;;;39.50;20.12;;;;;;;3.27;97.97;99824.59;1630093;87;26086;-76
2022/01/17 03:14:36;;;;;;;34.95;19.30;;;;;;;3.31;97.84;99813.18;1632952;87;25904;-76
2022/01/17 03:17:03;;;;;;;37.23;20.52;;;;;;;3.33;97.83;99821.30;1626903;87;28359;-76
2022/01/17 03:19:29;;;;;;;35.45;19.67;;;;;;;3.36;97.63;99816.19;1632088;87;25911;-76
2022/01/17 03:21:55;;;;;;;37.20;20.32;;;;;;;3.37;97.49;99823.13;1632597;87;25837;-76
2022/01/17 03:24:22;;;;;;;37.17;20.27;;;;;;;3.39;97.48;99823.30;1630611;86;26939;-77
2022/01/17 03:26:48;;;;;;;39.60;22.73;;;;;;;3.40;97.31;99816.20;1630612;86;26009;-76
2022/01/17 03:29:14;;;;;;;37.80;19.50;;;;;;;3.40;97.17;99807.74;1631288;86;27515;-76
2022/01/17 03:31:40;;;;;;;34.92;18.73;;;;;;;3.43;97.06;99814.05;1632981;87;25951;-76
2022/01/17 03:34:06;;;;;;;39.18;20.30;;;;;;;3.44;96.96;99806.46;1632706;87;25810;-76
2022/01/17 03:36:33;;;;;;;37.88;20.48;;;;;;;3.46;96.80;99800.50;1614556;88;26246;-76
2022/01/17 03:39:00;;;;;;;34.73;20.08;;;;;;;3.47;96.68;99798.17;1613069;88;25906;-77
2022/01/17 03:41:26;;;;;;;32.35;19.27;;;;;;;3.49;96.50;99792.23;1615473;87;27496;-76
2022/01/17 03:43:52;;;;;;;30.90;18.23;;;;;;;3.51;96.35;99783.62;1612076;88;26698;-76
2022/01/17 03:46:18;;;;;;;39.27;19.05;;;;;;;3.53;96.16;99779.52;1615584;88;25364;-76
2022/01/17 03:48:45;;;;;;;29.15;16.93;;;;;;;3.55;95.91;99778.34;1613400;88;26065;-76
2022/01/17 03:51:11;;;;;;;31.07;17.25;;;;;;;3.58;95.75;99770.56;1614622;87;25939;-76
2022/01/17 03:53:37;;;;;;;30.25;16.00;;;;;;;3.59;95.84;99763.78;1615224;88;27485;-76
2022/01/17 03:56:04;;;;;;;31.93;18.05;;;;;;;3.61;95.68;99755.20;1612954;88;25956;-76
2022/01/17 03:58:30;;;;;;;30.32;16.95;;;;;;;3.64;95.50;99750.89;1615359;87;25825;-76
2022/01/17 04:00:58;;;;;;;24.63;14.23;;;;;;;3.65;95.23;99745.94;1614955;88;25896;-76
2022/01/17 04:03:26;;;;;;;33.30;18.45;;;;;;;3.67;94.97;99722.77;1612902;87;25995;-76
2022/01/17 04:05:53;;;;;;;29.90;16.57;;;;;;;3.69;95.11;99717.30;1614861;88;27588;-76
2022/01/17 04:08:20;;;;;;;31.05;16.52;;;;;;;3.72;94.97;99715.66;1615555;88;25863;-76
2022/01/17 04:10:46;;;;;;;29.75;17.35;;;;;;;3.71;94.77;99707.37;1612909;88;25797;-76
2022/01/17 04:13:13;;;;;;;30.85;17.40;;;;;;;3.72;94.77;99669.31;1614632;87;26149;-77
2022/01/17 04:15:40;;;;;;;27.58;15.58;;;;;;;3.74;94.77;99682.70;1614900;88;25728;-76
2022/01/17 04:18:09;;;;;;;31.25;17.00;;;;;;;3.76;94.55;99682.55;1613262;88;27533;-76
2022/01/17 04:20:38;;;;;;;23.45;14.65;;;;;;;3.78;94.61;99667.32;1614381;88;26513;-76
2022/01/17 04:23:08;;;;;;;25.97;16.27;;;;;;;3.78;94.13;99649.61;1615717;88;25889;-76
2022/01/17 04:25:38;;;;;;;30.10;16.75;;;;;;;3.79;94.25;99641.98;1611431;88;26100;-76
2022/01/17 04:28:08;;;;;;;25.88;14.93;;;;;;;3.81;93.70;99650.59;1613356;87;25923;-76
2022/01/17 04:30:35;;;;;;;24.87;15.45;;;;;;;3.85;93.88;99642.63;1611202;88;28399;-76
2022/01/17 04:33:02;;;;;;;25.30;15.40;;;;;;;3.88;93.84;99625.59;1613411;87;25807;-76
2022/01/17 04:35:30;;;;;;;24.20;14.53;;;;;;;3.89;93.89;99619.30;1615907;88;25903;-76
2022/01/17 04:38:02;;;;;;;26.48;14.87;;;;;;;3.90;93.38;99609.86;1614451;88;26138;-76
2022/01/17 04:40:35;;;;;;;22.42;12.75;;;;;;;3.93;93.02;99624.59;1611827;88;26282;-76
2022/01/17 04:43:13;;;;;;;20.82;13.70;;;;;;;3.95;92.97;99610.68;1613857;88;27569;-76
2022/01/17 04:45:34;;;;;;;18.37;12.23;;;;;;;3.96;92.45;99621.59;1612739;88;26430;-76
2022/01/17 04:48:00;;;;;;;21.02;11.73;;;;;;;4.00;92.45;99615.48;1614459;88;26411;-76
2022/01/17 04:50:28;;;;;;;20.60;12.58;;;;;;;4.01;92.39;99608.67;1616268;88;26086;-76
2022/01/17 04:52:57;;;;;;;18.42;11.40;;;;;;;4.03;92.22;99604.52;1609937;88;26576;-76
2022/01/17 04:55:25;;;;;;;20.43;10.88;;;;;;;4.05;92.00;99609.16;1613852;87;27483;-76
2022/01/17 04:57:52;;;;;;;18.42;11.75;;;;;;;4.06;91.27;99601.55;1615043;88;25745;-76
2022/01/17 05:00:22;;;;;;;20.23;12.30;;;;;;;4.08;91.32;99599.55;1613161;88;25825;-76
2022/01/17 05:02:48;;;;;;;22.25;12.20;;;;;;;4.10;91.04;99597.56;1614490;88;26868;-76
2022/01/17 05:05:16;;;;;;;19.92;11.35;;;;;;;4.11;91.28;99581.48;1615387;88;25818;-77
2022/01/17 05:07:43;;;;;;;20.85;11.10;;;;;;;4.12;90.96;99569.89;1615719;88;28295;-76
2022/01/17 05:10:13;;;;;;;20.50;12.05;;;;;;;4.14;91.04;99565.74;1614324;88;25975;-76
2022/01/17 05:12:40;;;;;;;18.27;10.90;;;;;;;4.16;90.92;99558.45;1630822;87;26570;-77
2022/01/17 05:15:17;;;;;;;18.25;9.65;;;;;;;4.16;90.55;99560.60;1630430;87;25904;-76
2022/01/17 05:17:43;;;;;;;16.95;10.03;;;;;;;4.17;90.34;99545.02;1630236;87;25836;-76
2022/01/17 05:20:07;;;;;;;20.17;10.58;;;;;;;4.18;90.25;99561.26;1632196;87;27693;-76
2022/01/17 05:22:35;;;;;;;20.40;11.70;;;;;;;4.20;90.06;99530.59;1631751;87;25884;-76
2022/01/17 05:25:09;;;;;;;16.30;11.65;;;;;;;4.20;90.55;99523.97;1630624;86;26277;-76
2022/01/17 05:27:36;;;;;;;18.95;10.53;;;;;;;4.19;90.18;99523.14;1631683;87;26023;-76
2022/01/17 05:30:14;;;;;;;18.17;11.20;;;;;;;4.19;90.42;99499.28;1615652;88;26567;-76
2022/01/17 05:32:41;;;;;;;15.50;10.05;;;;;;;4.18;90.54;99483.08;1615744;88;28342;-76
2022/01/17 05:35:09;;;;;;;25.43;12.25;;;;;;;4.17;90.87;99478.76;1613085;88;25934;-76
2022/01/17 05:37:35;;;;;;;18.52;11.50;;;;;;;4.18;91.00;99480.91;1614147;87;26634;-76
2022/01/17 05:40:04;;;;;;;19.32;11.15;;;;;;;4.17;91.06;99484.58;1593288;88;26985;-76
2022/01/17 05:42:31;;;;;;;21.73;10.72;;;;;;;4.16;91.12;99486.89;1614102;88;26703;-76
2022/01/17 05:44:57;;;;;;;23.92;12.30;;;;;;;4.17;91.26;99479.28;1617010;88;27509;-76
2022/01/17 05:47:23;;;;;;;19.52;10.80;;;;;;;4.13;91.08;99450.95;1614148;87;25795;-76
2022/01/17 05:49:50;;;;;;;16.55;9.33;;;;;;;4.14;91.04;99449.14;1616103;88;25980;-76
2022/01/17 05:52:17;;;;;;;18.57;10.18;;;;;;;4.13;91.06;99456.25;1630279;87;26553;-76
2022/01/17 05:54:43;;;;;;;17.48;9.35;;;;;;;4.12;90.99;99449.32;1632124;87;25591;-76
2022/01/17 05:57:10;;;;;;;14.80;9.13;;;;;;;4.12;90.99;99437.89;1625698;87;27480;-76
2022/01/17 05:59:36;;;;;;;12.53;7.85;;;;;;;4.12;90.66;99441.86;1626180;87;25909;-76
2022/01/17 06:02:04;;;;;;;17.65;9.10;;;;;;;4.13;90.82;99446.18;1631571;87;25884;-76
2022/01/17 06:04:31;;;;;;;18.80;9.68;;;;;;;4.12;90.83;99437.39;1632305;87;26858;-76
2022/01/17 06:06:58;;;;;;;14.25;9.55;;;;;;;4.13;90.75;99443.01;1607567;88;25783;-76
2022/01/17 06:09:24;;;;;;;18.27;9.70;;;;;;;4.15;90.70;99433.05;1614769;88;26884;-76
2022/01/17 06:11:50;;;;;;;14.98;9.08;;;;;;;4.16;90.73;99435.22;1613189;87;25865;-76
2022/01/17 06:14:18;;;;;;;18.48;9.48;;;;;;;4.16;90.69;99413.52;1633121;87;25888;-76
2022/01/17 06:16:45;;;;;;;13.80;7.80;;;;;;;4.15;90.64;99419.00;1633138;87;26106;-76
2022/01/17 06:19:13;;;;;;;12.63;8.75;;;;;;;4.15;90.95;99413.18;1632935;87;26140;-76
2022/01/17 06:21:39;;;;;;;15.85;8.90;;;;;;;4.15;90.97;99400.45;1630262;87;28527;-76
2022/01/17 06:24:09;;;;;;;17.90;8.58;;;;;;;4.15;91.10;99377.93;1627769;87;25948;-76
2022/01/17 06:26:40;;;;;;;11.15;7.85;;;;;;;4.14;91.22;99360.36;1604734;88;26000;-76
2022/01/17 06:29:10;;;;;;;15.28;7.53;;;;;;;4.13;91.38;99364.03;1605929;88;26090;-77
2022/01/17 06:31:37;;;;;;;18.00;9.25;;;;;;;4.11;91.48;99356.23;1591963;88;25774;-77
2022/01/17 06:34:03;;;;;;;12.58;7.75;;;;;;;4.11;91.94;99351.42;1609275;88;27567;-76
2022/01/17 06:36:30;;;;;;;11.95;7.08;;;;;;;4.08;92.10;99324.81;1632232;87;25817;-76
2022/01/17 06:38:56;;;;;;;10.45;6.33;;;;;;;4.08;92.13;99327.95;1630633;86;25835;-77
2022/01/17 06:41:23;;;;;;;16.82;6.33;;;;;;;4.08;92.21;99314.21;1632536;87;26145;-76
2022/01/17 06:43:49;;;;;;;17.45;6.75;;;;;;;4.07;91.93;99294.49;1631903;87;25783;-77
2022/01/17 06:46:16;;;;;;;14.20;7.10;;;;;;;4.08;91.96;99275.79;1633678;87;28285;-77
2022/01/17 06:48:43;;;;;;;11.80;6.10;;;;;;;4.08;92.24;99274.46;1599887;88;26509;-76
2022/01/17 06:51:09;;;;;;;9.88;5.22;;;;;;;4.09;92.13;99269.97;1631752;86;25781;-76
2022/01/17 06:53:36;;;;;;;12.55;6.00;;;;;;;4.09;92.10;99255.39;1627542;87;26054;-76
2022/01/17 06:56:02;;;;;;;14.65;5.83;;;;;;;4.09;92.21;99260.20;1627141;87;26480;-76
2022/01/17 06:58:29;;;;;;;13.55;6.20;;;;;;;4.08;92.55;99255.08;1632329;86;27460;-76
2022/01/17 07:00:56;;;;;;;13.20;5.65;;;;;;;4.05;92.85;99246.98;1632474;87;25993;-76
2022/01/17 07:03:22;;;;;;;12.20;6.10;;;;;;;4.03;92.97;99242.86;1602988;88;25860;-77
2022/01/17 07:05:48;;;;;;;12.70;5.37;;;;;;;4.02;93.33;99245.20;1637122;87;26819;-76
2022/01/17 07:08:14;;;;;;;11.68;5.87;;;;;;;4.00;93.42;99259.93;1606109;88;26433;-76
2022/01/17 07:10:40;;;;;;;10.75;4.83;;;;;;;3.98;93.56;99266.44;1606900;88;28494;-76
2022/01/17 07:13:07;;;;;;;10.82;5.33;;;;;;;3.96;93.63;99265.78;1608920;88;25899;-77
2022/01/17 07:15:33;;;;;;;8.80;4.00;;;;;;;3.96;93.72;99278.51;1631820;87;25617;-76
2022/01/17 07:17:59;;;;;;;11.20;4.05;;;;;;;3.96;93.76;99297.58;1630647;86;26071;-76
2022/01/17 07:20:25;;;;;;;11.28;5.05;;;;;;;3.96;93.82;99342.09;1626495;87;25890;-77
2022/01/17 07:22:52;;;;;;;8.58;4.10;;;;;;;3.98;93.74;99327.36;1631016;86;27482;-76
2022/01/17 07:25:18;;;;;;;6.17;3.92;;;;;;;3.99;93.67;99292.73;1632468;87;26007;-76
2022/01/17 08:21:14;;;;;;;10.85;6.12;;;;;;;4.20;93.14;99060.19;1777865;79;25698;-76
2022/01/17 08:23:41;;;;;;;12.98;6.30;;;;;;;4.11;93.43;99082.48;1746402;81;26520;-76
2022/01/17 08:26:07;;;;;;;9.08;4.75;;;;;;;4.14;93.53;99096.70;1743455;81;27460;-77
2022/01/17 08:28:33;;;;;;;8.83;5.42;;;;;;;4.15;93.37;99081.14;1747663;81;25891;-76
2022/01/17 08:30:59;;;;;;;11.33;4.33;;;;;;;4.15;93.31;99083.26;1745999;80;25661;-76
2022/01/17 08:33:25;;;;;;;10.13;4.97;;;;;;;4.17;93.46;99063.22;1749188;81;25471;-76
2022/01/17 08:35:51;;;;;;;11.15;6.10;;;;;;;4.19;93.61;99058.56;1739504;81;25877;-76
2022/01/17 08:38:18;;;;;;;12.10;5.00;;;;;;;4.16;93.67;99035.06;1740172;81;27527;-77
2022/01/17 08:40:44;;;;;;;9.58;4.33;;;;;;;4.15;94.03;99056.77;1743840;81;26129;-76
2022/01/17 08:43:11;;;;;;;9.23;4.80;;;;;;;4.14;94.21;99045.03;1740168;81;25891;-76
2022/01/17 08:45:37;;;;;;;11.28;3.98;;;;;;;4.14;94.39;99050.33;1739442;81;25810;-77
2022/01/17 08:48:04;;;;;;;9.45;2.83;;;;;;;4.14;94.50;99039.73;1749162;81;25746;-76
2022/01/17 08:50:31;;;;;;;6.72;2.77;;;;;;;4.15;94.66;99051.98;1749452;81;27451;-77
2022/01/17 08:52:57;;;;;;;7.65;3.00;;;;;;;4.14;94.73;99033.94;1744649;80;26474;-76
2022/01/17 08:55:25;;;;;;;6.70;2.85;;;;;;;4.16;95.02;99058.42;1746324;81;26488;-77
2022/01/17 08:57:51;;;;;;;8.43;2.87;;;;;;;4.15;95.41;99063.91;1743096;81;26516;-76
2022/01/17 09:00:19;;;;;;;8.38;1.30;;;;;;;4.15;96.11;99253.37;1735596;80;25858;-75
2022/01/17 09:02:46;;;;;;;0.68;0.45;;;;;;;3.50;86.73;99325.80;1748504;81;27444;-75
2022/01/17 09:05:12;;;;;;;1.20;0.55;;;;;;;2.25;91.13;99383.70;1748883;81;25842;-75
2022/01/17 09:07:39;;;;;;;1.27;0.30;;;;;;;1.65;93.69;99352.39;1737662;81;25335;-75
2022/01/17 09:10:06;;;;;;;0.30;0.30;;;;;;;1.27;94.91;99369.53;1738513;81;26514;-75
2022/01/17 09:12:32;;;;;;;0.42;0.30;;;;;;;1.04;96.43;99380.30;1743533;81;25784;-74
2022/01/17 09:15:00;;;;;;;2.67;0.50;;;;;;;0.84;97.66;99395.48;1741080;81;28277;-75
2022/01/17 09:17:26;;;;;;;0.65;0.42;;;;;;;0.70;99.73;99430.31;1748723;81;26577;-76
2022/01/17 09:19:52;;;;;;;1.45;0.35;;;;;;;0.60;99.42;99421.64;1732677;80;25809;-75
2022/01/17 09:22:18;;;;;;;0.57;0.40;;;;;;;0.50;99.27;99402.47;1736385;81;25999;-76
2022/01/17 09:24:44;;;;;;;0.62;0.30;;;;;;;0.49;99.50;99406.10;1729494;81;25307;-76
2022/01/17 09:27:12;;;;;;;0.55;0.40;;;;;;;0.50;99.61;99427.50;1710504;81;28333;-76
2022/01/17 09:29:38;;;;;;;1.02;1.00;;;;;;;0.52;99.89;99429.48;1723975;81;25816;-75
2022/01/17 09:32:05;;;;;;;1.65;0.68;;;;;;;0.53;99.81;99428.52;1718256;81;25933;-75
2022/01/17 09:34:33;;;;;;;1.02;0.40;;;;;;;0.57;99.85;99433.83;1735892;81;25996;-76
2022/01/17 09:36:59;;;;;;;0.95;0.55;;;;;;;0.59;99.43;99411.63;1718082;81;25740;-75
2022/01/17 09:39:26;;;;;;;1.27;0.55;;;;;;;0.62;99.30;99398.13;1718901;81;27527;-75
2022/01/17 09:41:52;;;;;;;1.55;0.50;;;;;;;0.64;99.09;99397.98;1732056;81;26007;-75
2022/01/17 09:44:18;;;;;;;1.10;0.55;;;;;;;0.63;98.44;99416.92;1720904;81;26500;-75
2022/01/17 09:46:48;;;;;;;1.02;0.60;;;;;;;0.65;98.34;99414.95;1731674;81;25853;-75
2022/01/17 09:49:24;;;;;;;2.37;0.70;;;;;;;0.63;97.93;99398.95;1719546;81;25810;-74
2022/01/17 09:54:35;;;;;;;1.87;0.62;;;;;;;0.65;98.07;99403.58;1721558;81;26014;-76
2022/01/17 09:57:06;;;;;;;1.12;0.72;;;;;;;0.66;98.19;99406.05;1728363;81;25767;-75
2022/01/17 09:59:35;;;;;;;2.10;0.68;;;;;;;0.68;98.09;99388.28;1734504;81;25894;-76
2022/01/17 10:02:01;;;;;;;1.00;0.53;;;;;;;0.68;98.10;99405.41;1724220;81;25955;-76
2022/01/17 10:04:27;;;;;;;0.93;0.65;;;;;;;0.71;97.97;99416.14;1725100;81;27457;-75
2022/01/17 10:06:57;;;;;;;1.37;0.90;;;;;;;0.71;97.74;99420.93;1742659;81;26347;-75
2022/01/17 10:09:26;;;;;;;1.70;0.62;;;;;;;0.72;97.76;99431.83;1727471;81;25835;-76
2022/01/17 10:12:09;;;;;;;3.40;1.22;;;;;;;0.74;97.59;99435.61;1725411;81;25787;-75
2022/01/17 10:14:57;;;;;;;2.35;0.85;;;;;;;0.75;97.19;99447.80;1726159;81;25898;-76
2022/01/17 10:17:17;;;;;;;3.72;1.05;;;;;;;0.79;97.53;99419.66;1724647;81;28291;-75
2022/01/17 10:19:45;;;;;;;1.52;0.88;;;;;;;0.85;97.82;99441.13;1722328;81;26407;-75
2022/01/17 10:22:23;;;;;;;1.15;1.00;;;;;;;0.87;97.00;99439.17;1750043;81;25797;-76
2022/01/17 10:25:03;;;;;;;;;;;;;;;0.91;97.29;99437.39;1662965;84;26473;-75
2022/01/17 10:35:38;;;;;;;4.17;1.40;;;;;;;1.06;96.39;99471.94;1718693;83;25715;-76
2022/01/17 10:38:09;;;;;;;1.95;1.10;;;;;;;1.10;96.13;99496.53;1695696;83;25843;-75
2022/01/17 10:40:53;;;;;;;3.37;1.82;;;;;;;1.14;96.07;99486.49;1695161;84;26236;-76
2022/01/17 10:43:25;;;;;;;4.60;1.92;;;;;;;1.15;95.36;99483.72;1698621;83;27594;-75
2022/01/17 10:45:54;;;;;;;3.75;1.50;;;;;;;1.16;95.33;99488.48;1702774;83;25951;-75
2022/01/17 10:48:20;;;;;;;6.42;2.42;;;;;;;1.18;94.48;99494.42;1702507;83;26186;-75
2022/01/17 10:50:49;;;;;;;2.87;1.50;;;;;;;1.21;94.66;99501.56;1699261;83;25854;-75
2022/01/17 10:53:17;;;;;;;1.80;1.20;;;;;;;1.24;94.23;99521.02;1695500;83;25971;-75
2022/01/17 10:55:50;;;;;;;4.03;1.40;;;;;;;1.30;94.34;99528.34;1703552;83;27484;-76
2022/01/17 10:58:25;;;;;;;3.90;1.50;;;;;;;1.31;94.05;99529.98;1706031;83;26457;-75
2022/01/17 11:00:59;;;;;;;4.78;1.92;;;;;;;1.33;93.75;99510.87;1710693;83;25862;-76
2022/01/17 11:03:32;;;;;;;4.45;2.25;;;;;;;1.33;92.98;99510.03;1698257;83;25751;-76
2022/01/17 11:06:06;;;;;;;5.58;2.42;;;;;;;1.30;93.37;99527.02;1701622;83;25831;-76
2022/01/17 11:08:34;;;;;;;4.05;2.60;;;;;;;1.28;93.60;99542.15;1709065;83;28122;-75
2022/01/17 11:11:07;;;;;;;4.72;3.72;;;;;;;1.27;93.31;99544.95;1724871;81;25776;-76
2022/01/17 11:13:39;;;;;;;3.70;2.80;;;;;;;1.26;93.31;99548.06;1708840;83;25986;-75
2022/01/17 11:16:11;;;;;;;5.60;3.02;;;;;;;1.29;92.78;99565.41;1702903;83;25766;-76
2022/01/17 11:18:36;;;;;;;6.53;3.00;;;;;;;1.33;93.36;99565.44;1703490;83;25776;-76
2022/01/17 11:21:14;;;;;;;6.55;2.95;;;;;;;1.34;92.41;99552.59;1692349;84;27472;-76
2022/01/17 11:23:45;;;;;;;3.87;3.25;;;;;;;1.38;92.60;99558.73;1697103;83;26017;-77
2022/01/17 11:26:13;;;;;;;5.30;3.12;;;;;;;1.41;91.89;99563.69;1693765;83;26500;-77
2022/01/17 11:28:42;;;;;;;3.98;2.92;;;;;;;1.45;91.93;99559.75;1702135;83;25845;-76
2022/01/17 11:31:13;;;;;;;6.62;2.77;;;;;;;1.50;92.24;99557.48;1701961;83;25912;-77
2022/01/17 11:33:41;;;;;;;8.08;3.00;;;;;;;1.54;91.68;99579.11;1709390;82;27553;-76
2022/01/17 11:36:08;;;;;;;5.47;2.67;;;;;;;1.57;91.40;99585.41;1694859;83;25893;-77
2022/01/17 11:38:45;;;;;;;7.97;2.52;;;;;;;1.60;91.28;99595.67;1697979;83;25843;-77
2022/01/17 11:41:36;;;;;;;7.10;2.58;;;;;;;1.65;91.60;99605.77;1702351;83;25877;-76
2022/01/17 11:44:07;;;;;;;;;;;;;;;1.69;90.52;99611.88;1710459;83;26471;-76
2022/01/17 11:46:49;;;;;;;6.30;1.90;;;;;;;1.74;89.46;99628.09;1704525;83;27448;-76
2022/01/17 11:49:31;;;;;;;5.47;1.98;;;;;;;1.76;87.63;99621.33;1714339;81;25878;-76
2022/01/17 11:51:56;;;;;;;6.03;1.62;;;;;;;1.80;87.41;99617.39;1708082;83;26223;-76
2022/01/17 11:54:28;;;;;;;8.25;2.60;;;;;;;1.85;87.09;99627.02;1714530;83;25894;-77
2022/01/17 11:57:02;;;;;;;6.30;1.90;;;;;;;1.92;87.27;99627.58;1705020;83;25870;-77
2022/01/17 11:59:42;;;;;;;5.10;2.67;;;;;;;1.97;84.82;99635.00;1696903;83;27476;-77
2022/01/17 12:02:32;;;;;;;5.22;2.12;;;;;;;2.00;82.85;99659.80;1701557;83;26214;-76
2022/01/17 12:05:11;;;;;;;4.85;1.92;;;;;;;2.03;81.92;99670.87;1701232;83;26529;-76
2022/01/17 12:07:44;;;;;;;4.22;2.25;;;;;;;2.07;82.82;99688.09;1698679;83;25962;-76
2022/01/17 12:10:14;;;;;;;7.72;2.10;;;;;;;2.11;82.54;99684.16;1696092;83;25739;-76
2022/01/17 12:12:43;;;;;;;7.37;2.45;;;;;;;2.12;81.76;99704.77;1698161;83;27486;-76
2022/01/17 12:15:16;;;;;;;8.73;2.30;;;;;;;2.15;81.01;99717.20;1689985;84;25860;-76
2022/01/17 12:17:44;;;;;;;4.35;2.00;;;;;;;2.17;80.60;99739.48;1707559;83;25835;-76
2022/01/17 12:20:17;;;;;;;4.87;1.50;;;;;;;2.20;80.45;99750.56;1702446;83;25774;-77
2022/01/17 12:22:53;;;;;;;6.80;1.98;;;;;;;2.22;79.48;99751.75;1697982;83;26053;-77
2022/01/17 12:25:29;;;;;;;4.55;1.72;;;;;;;2.23;77.01;99752.08;1701927;83;28057;-76
2022/01/17 12:28:12;;;;;;;6.40;1.87;;;;;;;2.25;77.34;99758.03;1697574;83;26462;-76
2022/01/17 12:30:46;;;;;;;4.33;1.57;;;;;;;2.27;78.34;99756.06;1698174;83;25786;-77
2022/01/17 12:33:40;;;;;;;7.65;1.70;;;;;;;2.27;77.49;99754.25;1667824;84;25881;-77
2022/01/17 12:36:29;;;;;;;3.98;1.45;;;;;;;2.26;76.99;99753.09;1687025;84;25886;-77
2022/01/17 12:39:22;;;;;;;4.85;2.05;;;;;;;2.29;77.55;99764.17;1678381;84;28400;-77
2022/01/17 12:41:52;;;;;;;4.40;1.52;;;;;;;2.31;78.13;99761.38;1691877;84;25804;-76
2022/01/17 12:44:24;;;;;;;6.67;1.62;;;;;;;2.32;76.24;99757.27;1686837;84;25776;-76
2022/01/17 12:46:58;;;;;;;5.60;2.37;;;;;;;2.33;76.59;99787.18;1683857;84;26083;-77
2022/01/17 12:49:25;;;;;;;2.40;1.32;;;;;;;2.35;74.98;99786.02;1683050;83;26485;-77
2022/01/17 12:51:55;;;;;;;6.25;1.70;;;;;;;2.37;74.78;99779.28;1690135;84;27627;-76
2022/01/17 12:54:24;;;;;;;4.53;1.40;;;;;;;2.38;72.32;99791.98;1686434;84;26016;-77
2022/01/17 12:56:54;;;;;;;4.08;1.45;;;;;;;2.41;72.80;99800.93;1686475;84;26475;-77